Time;durP1;ratioP1;P1;durP2;ratioP2;P2;SDS_P1;SDS_P2;PMS_P1;PMS_P2;Temp;Humidity;BMP_temperature;BMP_pressure;BME280_temperature;BME280_humidity;BME280_pressure;Samples;Min_cycle;Max_cycle;Signal;HPM_P1;HPM_P2
2023/01/30 00:03:46;;;;;;;17.27;12.97;;;2.00;99.90;;;;;;10479790;28;20773;-81
2023/01/30 00:09:12;;;;;;;22.50;14.37;;;2.00;99.90;;;;;;10481558;28;20584;-82
2023/01/30 00:14:34;;;;;;;20.50;14.57;;;1.90;99.90;;;;;;10480049;28;20254;-77
2023/01/30 00:19:55;;;;;;;22.03;15.67;;;1.90;99.90;;;;;;10457201;28;20208;-77
2023/01/30 00:25:16;;;;;;;25.40;15.83;;;1.90;99.90;;;;;;10439941;28;20197;-82
2023/01/30 00:30:37;;;;;;;24.83;14.87;;;1.90;99.90;;;;;;10459675;28;20223;-78
2023/01/30 00:36:00;;;;;;;21.17;15.63;;;1.90;99.90;;;;;;10479656;28;20188;-77
2023/01/30 00:41:21;;;;;;;25.90;16.93;;;1.90;99.90;;;;;;10479264;28;20218;-82
2023/01/30 00:52:22;;;;;;;24.50;16.27;;;1.90;99.90;;;;;;10479360;28;20398;-81
2023/01/30 00:57:44;;;;;;;23.33;15.33;;;1.90;99.90;;;;;;10476426;28;20277;-80
2023/01/30 01:03:05;;;;;;;23.93;15.77;;;1.90;99.90;;;;;;10478296;28;20190;-78
2023/01/30 01:08:26;;;;;;;27.97;18.90;;;1.90;99.90;;;;;;10478929;28;20207;-81
2023/01/30 01:13:49;;;;;;;22.20;16.03;;;1.90;99.90;;;;;;10462935;28;20560;-79
2023/01/30 01:19:10;;;;;;;27.07;16.80;;;1.90;99.90;;;;;;10472838;28;20194;-79
2023/01/30 01:24:33;;;;;;;27.13;17.13;;;1.90;99.90;;;;;;10436491;28;20234;-76
2023/01/30 01:29:54;;;;;;;22.90;15.13;;;1.90;99.90;;;;;;10453555;28;20528;-78
2023/01/30 01:35:16;;;;;;;21.10;14.47;;;1.90;99.90;;;;;;10463261;28;20241;-77
2023/01/30 01:46:26;;;;;;;24.43;15.63;;;1.80;99.90;;;;;;10476456;28;20201;-82
2023/01/30 01:51:59;;;;;;;21.20;14.37;;;1.80;99.90;;;;;;10478237;28;20239;-80
2023/01/30 01:57:38;;;;;;;23.33;16.03;;;1.90;99.90;;;;;;10477073;28;20522;-81
2023/01/30 02:03:08;;;;;;;23.80;15.77;;;1.90;99.90;;;;;;10457166;28;20497;-82
2023/01/30 02:08:37;;;;;;;22.77;16.07;;;1.90;99.90;;;;;;10485304;28;20226;-77
2023/01/30 02:14:00;;;;;;;25.03;16.17;;;1.80;99.90;;;;;;10486141;28;20195;-76
2023/01/30 02:19:49;;;;;;;23.53;15.37;;;1.80;99.90;;;;;;10464240;28;20220;-77
2023/01/30 02:25:16;;;;;;;23.53;15.17;;;1.90;99.90;;;;;;10485497;28;20224;-76
2023/01/30 02:31:03;;;;;;;24.27;16.00;;;1.80;99.90;;;;;;10483568;28;20244;-81
2023/01/30 02:36:53;;;;;;;22.40;15.00;;;1.80;99.90;;;;;;10484068;28;20236;-76
2023/01/30 02:42:33;;;;;;;26.07;14.23;;;1.70;99.90;;;;;;10484939;28;20194;-81
2023/01/30 02:48:04;;;;;;;21.63;14.90;;;1.80;99.90;;;;;;10462741;28;20228;-82
2023/01/30 02:53:31;;;;;;;17.80;12.50;;;1.70;99.90;;;;;;10442393;28;20195;-81
2023/01/30 02:58:58;;;;;;;20.60;13.20;;;1.80;99.90;;;;;;10458553;28;20238;-79
2023/01/30 03:04:47;;;;;;;16.10;11.17;;;1.70;99.90;;;;;;10439377;28;20532;-77
2023/01/30 03:10:34;;;;;;;17.23;12.53;;;1.70;99.90;;;;;;10477437;28;20426;-77
2023/01/30 03:16:11;;;;;;;14.90;10.73;;;1.70;99.90;;;;;;10452636;28;20206;-80
2023/01/30 03:21:32;;;;;;;14.00;9.93;;;1.60;99.90;;;;;;10464958;28;20202;-82
2023/01/30 03:27:02;;;;;;;14.77;9.80;;;1.50;99.90;;;;;;10480104;28;20203;-82
2023/01/30 03:32:24;;;;;;;13.53;9.30;;;1.50;99.90;;;;;;10465617;28;20233;-82
2023/01/30 03:37:45;;;;;;;11.83;8.77;;;1.50;99.90;;;;;;10450126;28;20202;-81
2023/01/30 03:43:06;;;;;;;10.33;7.73;;;1.50;99.90;;;;;;10479505;28;20404;-81
2023/01/30 03:48:29;;;;;;;10.20;7.60;;;1.50;99.90;;;;;;10479366;28;20464;-80
2023/01/30 03:53:50;;;;;;;8.90;6.93;;;1.60;99.90;;;;;;10478567;28;20207;-82
2023/01/30 03:59:11;;;;;;;10.43;6.97;;;1.50;99.90;;;;;;10420726;28;1181673;-80
2023/01/30 04:04:40;;;;;;;10.77;7.13;;;1.60;99.90;;;;;;10425314;28;20216;-82
2023/01/30 04:10:03;;;;;;;10.73;8.43;;;1.60;99.90;;;;;;10440346;28;20237;-81
2023/01/30 04:15:26;;;;;;;10.63;6.73;;;1.60;99.90;;;;;;10480635;28;20372;-82
2023/01/30 04:21:07;;;;;;;8.87;6.57;;;1.70;99.90;;;;;;10477452;28;20365;-82
2023/01/30 04:26:31;;;;;;;9.13;6.40;;;1.60;99.90;;;;;;10448107;28;20252;-81
2023/01/30 04:31:52;;;;;;;8.57;5.47;;;1.60;99.90;;;;;;10462822;28;20249;-80
2023/01/30 04:37:16;;;;;;;9.70;5.63;;;1.60;99.90;;;;;;10463183;28;20209;-81
2023/01/30 04:42:40;;;;;;;9.00;5.23;;;1.60;99.90;;;;;;10458490;28;20217;-80
2023/01/30 04:48:25;;;;;;;8.37;6.80;;;1.70;99.90;;;;;;10471710;28;20252;-82
2023/01/30 04:53:49;;;;;;;7.60;5.30;;;1.60;99.90;;;;;;10433906;28;20255;-81
2023/01/30 04:59:10;;;;;;;9.27;5.37;;;1.60;99.90;;;;;;10447871;28;20234;-81
2023/01/30 05:04:38;;;;;;;7.33;5.60;;;1.50;99.90;;;;;;10463958;28;20207;-81
2023/01/30 05:09:59;;;;;;;6.07;5.37;;;1.60;99.90;;;;;;10478185;28;20223;-82
2023/01/30 05:15:20;;;;;;;8.43;6.37;;;1.50;99.90;;;;;;10478341;28;20281;-80
2023/01/30 05:20:41;;;;;;;9.10;6.20;;;1.60;99.90;;;;;;10460432;28;20206;-82
2023/01/30 05:26:03;;;;;;;8.63;5.93;;;1.60;99.90;;;;;;10437566;28;20271;-81
2023/01/30 05:31:24;;;;;;;10.67;7.43;;;1.50;99.90;;;;;;10474307;28;20302;-81
2023/01/30 05:36:45;;;;;;;7.67;5.93;;;1.60;99.90;;;;;;10478510;28;20269;-81
2023/01/30 05:42:07;;;;;;;8.47;5.40;;;1.40;99.90;;;;;;10472266;28;20214;-81
2023/01/30 05:47:28;;;;;;;6.83;5.03;;;1.40;99.90;;;;;;10436906;28;20221;-80
2023/01/30 05:52:49;;;;;;;5.43;4.60;;;1.40;99.90;;;;;;10458599;28;20226;-78
2023/01/30 05:58:11;;;;;;;5.97;4.77;;;1.40;99.90;;;;;;10462971;28;20366;-80
2023/01/30 06:03:32;;;;;;;7.00;5.37;;;1.30;99.90;;;;;;10436718;28;20273;-80
2023/01/30 06:08:55;;;;;;;7.93;5.80;;;1.30;99.90;;;;;;10449556;28;20227;-79
2023/01/30 06:14:16;;;;;;;5.40;4.40;;;1.40;99.90;;;;;;10461436;28;20213;-78
2023/01/30 06:19:37;;;;;;;6.53;4.97;;;1.50;99.90;;;;;;10477510;28;20205;-78
2023/01/30 06:24:58;;;;;;;6.77;4.90;;;1.60;99.90;;;;;;10462108;28;20386;-78
2023/01/30 06:30:20;;;;;;;5.83;4.47;;;1.40;99.90;;;;;;10475996;28;20227;-78
2023/01/30 06:35:42;;;;;;;5.77;4.27;;;1.50;99.90;;;;;;10477000;28;20376;-78
2023/01/30 06:41:03;;;;;;;5.03;3.97;;;1.50;99.90;;;;;;10475865;28;20202;-78
2023/01/30 06:46:25;;;;;;;5.37;4.33;;;1.40;99.90;;;;;;10475562;28;20209;-78
2023/01/30 06:51:47;;;;;;;6.87;5.83;;;1.50;99.90;;;;;;10483942;28;20226;-79
2023/01/30 06:57:08;;;;;;;7.83;5.13;;;1.40;99.90;;;;;;10481874;28;20264;-80
2023/01/30 07:02:33;;;;;;;8.00;5.60;;;1.50;99.90;;;;;;10460070;28;20227;-79
2023/01/30 07:07:54;;;;;;;13.17;7.07;;;1.50;99.90;;;;;;10467519;28;20274;-81
2023/01/30 07:13:16;;;;;;;5.77;4.00;;;1.50;99.90;;;;;;10453576;28;20230;-79
2023/01/30 07:18:37;;;;;;;5.23;3.77;;;1.60;99.90;;;;;;10483452;28;20207;-79
2023/01/30 07:23:58;;;;;;;4.77;3.67;;;1.60;99.90;;;;;;10483079;28;20216;-77
2023/01/30 07:29:19;;;;;;;5.53;4.30;;;1.70;99.90;;;;;;10465274;28;20264;-81
2023/01/30 07:34:40;;;;;;;5.13;4.10;;;1.70;99.90;;;;;;10482779;28;20244;-78
2023/01/30 07:40:03;;;;;;;8.53;5.23;;;1.70;99.90;;;;;;10482369;28;20194;-79
2023/01/30 07:45:24;;;;;;;3.90;3.33;;;1.60;99.90;;;;;;10493850;28;20228;-79
2023/01/30 07:50:45;;;;;;;4.47;3.40;;;1.80;99.90;;;;;;10518635;28;20272;-79
2023/01/30 07:56:08;;;;;;;2.93;2.63;;;1.70;99.90;;;;;;10481472;28;20264;-81
2023/01/30 08:01:29;;;;;;;3.43;2.97;;;1.80;99.90;;;;;;10467046;28;20221;-81
2023/01/30 08:06:49;;;;;;;3.27;2.57;;;1.80;99.90;;;;;;10473634;28;20214;-80
2023/01/30 08:12:10;;;;;;;8.23;4.40;;;1.80;99.90;;;;;;10452953;28;20295;-78
2023/01/30 08:17:31;;;;;;;3.60;2.10;;;1.70;99.90;;;;;;10476839;28;20205;-80
2023/01/30 08:22:53;;;;;;;3.00;2.37;;;1.90;99.90;;;;;;10479407;28;20210;-80
2023/01/30 08:28:15;;;;;;;3.37;3.00;;;1.90;99.90;;;;;;10479913;28;20569;-80
2023/01/30 08:33:36;;;;;;;4.63;2.83;;;1.90;99.90;;;;;;10432389;28;20231;-79
2023/01/30 08:38:57;;;;;;;3.83;3.10;;;1.90;99.90;;;;;;10473519;28;20190;-78
2023/01/30 08:44:18;;;;;;;4.20;3.27;;;1.90;99.90;;;;;;10474329;28;20200;-82
2023/01/30 08:49:39;;;;;;;4.03;3.10;;;2.00;99.90;;;;;;10474091;28;20230;-83
2023/01/30 08:55:00;;;;;;;5.07;3.77;;;2.10;99.90;;;;;;10456884;28;20199;-83
2023/01/30 09:00:22;;;;;;;8.00;4.53;;;2.00;99.90;;;;;;10471431;28;20288;-77
2023/01/30 09:05:43;;;;;;;7.67;4.80;;;2.20;99.90;;;;;;10466015;28;20496;-77
2023/01/30 09:11:05;;;;;;;7.77;5.00;;;2.30;99.90;;;;;;10471432;28;20303;-78
2023/01/30 09:16:26;;;;;;;7.10;4.97;;;2.40;99.90;;;;;;10472996;28;20493;-78
2023/01/30 09:21:49;;;;;;;7.57;5.00;;;2.30;99.90;;;;;;10471782;28;20593;-79
2023/01/30 09:27:10;;;;;;;8.80;4.93;;;2.40;99.90;;;;;;10471518;28;20184;-78
2023/01/30 09:32:31;;;;;;;7.50;5.07;;;2.50;99.90;;;;;;10472004;28;20242;-78
2023/01/30 09:37:53;;;;;;;11.23;5.43;;;2.70;99.90;;;;;;10469951;28;20383;-80
2023/01/30 09:43:31;;;;;;;9.27;5.10;;;2.80;99.90;;;;;;10472719;28;20278;-78
2023/01/30 09:49:13;;;;;;;9.23;5.33;;;3.00;99.90;;;;;;10463470;28;20188;-78
2023/01/30 09:54:36;;;;;;;11.77;4.93;;;3.00;99.90;;;;;;10471060;28;20583;-84
2023/01/30 10:00:19;;;;;;;8.50;4.50;;;2.90;97.40;;;;;;10453116;28;20223;-77
2023/01/30 10:05:48;;;;;;;10.90;6.23;;;2.80;92.10;;;;;;10452301;28;20439;-80
2023/01/30 10:11:39;;;;;;;10.77;7.10;;;2.90;99.20;;;;;;10431774;28;20289;-77
2023/01/30 10:17:03;;;;;;;7.60;4.60;;;2.90;99.90;;;;;;10468548;28;20219;-80
2023/01/30 10:22:46;;;;;;;10.23;5.63;;;2.90;99.90;;;;;;10434681;28;20370;-79
2023/01/30 10:28:29;;;;;;;7.50;4.30;;;3.00;99.90;;;;;;10477379;28;20214;-79
2023/01/30 10:34:03;;;;;;;8.70;4.90;;;2.90;99.90;;;;;;10456059;28;20306;-80
2023/01/30 10:39:57;;;;;;;7.70;4.93;;;2.80;99.90;;;;;;10465503;28;20210;-80
2023/01/30 10:45:25;;;;;;;10.23;5.23;;;3.00;99.90;;;;;;10478651;28;20290;-82
2023/01/30 10:50:58;;;;;;;13.60;5.77;;;3.00;99.90;;;;;;10474920;28;20226;-79
2023/01/30 10:56:39;;;;;;;13.90;6.17;;;3.10;99.90;;;;;;10463082;28;20255;-84
2023/01/30 11:02:24;;;;;;;11.30;5.07;;;3.20;99.90;;;;;;10478094;28;20208;-80
2023/01/30 11:07:47;;;;;;;10.53;4.90;;;3.40;99.90;;;;;;10477776;28;20286;-79
2023/01/30 11:13:30;;;;;;;13.87;5.17;;;3.50;99.90;;;;;;10477944;28;20251;-77
2023/01/30 11:18:51;;;;;;;13.13;4.70;;;3.60;95.50;;;;;;10473052;28;20192;-79
2023/01/30 11:24:38;;;;;;;16.40;5.33;;;3.80;89.40;;;;;;10476757;28;20290;-78
2023/01/30 11:30:15;;;;;;;15.23;4.20;;;4.00;74.30;;;;;;10493103;28;20277;-80
2023/01/30 11:35:57;;;;;;;14.90;3.50;;;4.10;52.90;;;;;;10457790;28;20514;-79
2023/01/30 11:41:20;;;;;;;16.70;3.00;;;4.20;36.00;;;;;;10450623;28;20220;-78
2023/01/30 11:46:43;;;;;;;18.20;3.70;;;4.80;5.40;;;;;;10473336;28;20531;-78
2023/01/30 11:52:05;;;;;;;16.00;3.27;;;4.70;1.00;;;;;;10475248;28;20418;-77
2023/01/30 11:57:26;;;;;;;12.47;3.17;;;4.60;1.00;;;;;;10473574;28;20395;-81
2023/01/30 12:02:49;;;;;;;14.33;3.60;;;4.50;9.10;;;;;;10458503;28;20207;-83
2023/01/30 12:08:15;;;;;;;15.37;3.70;;;4.40;7.50;;;;;;10444813;28;20525;-77
2023/01/30 12:13:42;;;;;;;18.30;4.17;;;4.10;18.70;;;;;;10477796;28;20262;-78
2023/01/30 12:19:29;;;;;;;13.27;2.90;;;4.00;54.80;;;;;;10455551;28;20207;-76
2023/01/30 12:24:59;;;;;;;16.37;3.73;;;3.90;43.30;;;;;;10439666;28;20211;-79
2023/01/30 12:30:38;;;;;;;30.53;4.60;;;3.80;57.60;;;;;;10447321;28;20224;-79
2023/01/30 12:36:26;;;;;;;24.33;3.70;;;3.90;63.50;;;;;;10458902;28;20215;-80
2023/01/30 12:41:59;;;;;;;19.40;3.40;;;3.80;61.90;;;;;;10472649;28;20211;-78
2023/01/30 12:47:54;;;;;;;17.60;4.17;;;3.90;63.20;;;;;;10472565;28;20228;-83
2023/01/30 12:53:28;;;;;;;24.83;5.33;;;3.80;98.70;;;;;;10469033;28;20406;-81
2023/01/30 12:58:54;;;;;;;19.97;5.20;;;3.90;99.90;;;;;;10425800;28;20244;-77
2023/01/30 13:04:20;;;;;;;16.60;3.80;;;4.00;65.50;;;;;;10470274;28;20226;-77
2023/01/30 13:09:41;;;;;;;16.57;4.03;;;4.10;64.50;;;;;;10482445;28;20305;-78
2023/01/30 13:15:27;;;;;;;25.93;3.83;;;4.20;43.90;;;;;;10457613;28;20888;-81
2023/01/30 13:21:28;;;;;;;18.00;3.13;;;4.30;13.10;;;;;;10459698;28;20198;-80
2023/01/30 13:26:52;;;;;;;17.57;3.00;;;4.30;20.40;;;;;;10442723;28;20445;-80
2023/01/30 13:32:42;;;;;;;11.17;3.80;;;4.30;26.50;;;;;;10465635;28;20219;-86
2023/01/30 13:38:06;;;;;;;21.20;4.57;;;4.30;21.70;;;;;;10451977;28;20218;-77
2023/01/30 13:43:35;;;;;;;17.80;2.80;;;4.20;17.70;;;;;;10469504;28;20215;-81
2023/01/30 13:48:56;;;;;;;9.97;2.43;;;4.20;13.40;;;;;;10462995;28;20231;-78
2023/01/30 13:54:20;;;;;;;15.23;4.10;;;4.10;1.00;;;;;;10468745;28;20223;-80
2023/01/30 14:00:30;;;;;;;14.10;2.43;;;4.10;4.80;;;;;;10456498;28;20308;-80
2023/01/30 14:05:51;;;;;;;8.27;1.97;;;4.00;1.40;;;;;;10441410;28;20212;-76
2023/01/30 14:11:49;;;;;;;13.70;1.90;;;3.90;17.00;;;;;;10466879;28;20452;-76
2023/01/30 14:17:15;;;;;;;11.70;2.07;;;3.80;22.30;;;;;;10451864;28;20491;-77
2023/01/30 14:22:55;;;;;;;7.70;1.97;;;3.90;26.00;;;;;;10477916;28;20401;-78
2023/01/30 14:28:16;;;;;;;6.60;1.73;;;3.80;20.50;;;;;;10474415;28;20214;-80
2023/01/30 14:33:50;;;;;;;9.27;2.13;;;3.80;27.50;;;;;;10451326;28;20243;-78
2023/01/30 14:39:39;;;;;;;6.27;1.43;;;3.70;21.90;;;;;;10472295;28;20439;-78
2023/01/30 14:45:15;;;;;;;9.70;3.10;;;3.60;19.20;;;;;;10464122;28;20210;-79
2023/01/30 14:50:36;;;;;;;12.50;1.97;;;3.60;23.60;;;;;;10479496;28;20284;-78
2023/01/30 14:56:03;;;;;;;11.60;3.07;;;3.60;24.70;;;;;;10449128;28;20491;-76
2023/01/30 15:01:24;;;;;;;11.47;2.60;;;3.50;27.50;;;;;;10467561;28;20203;-79
2023/01/30 15:06:46;;;;;;;15.10;3.20;;;3.50;22.00;;;;;;10430847;28;20538;-82
2023/01/30 15:12:35;;;;;;;15.87;3.07;;;3.40;24.90;;;;;;10450748;28;20527;-79
2023/01/30 15:18:27;;;;;;;15.43;3.10;;;3.40;38.70;;;;;;10451620;28;20275;-80
2023/01/30 15:24:22;;;;;;;13.57;3.73;;;3.40;31.70;;;;;;10437446;28;20270;-88
2023/01/30 15:30:02;;;;;;;10.80;3.60;;;3.60;21.20;;;;;;10436154;28;20199;-80
2023/01/30 15:35:28;;;;;;;15.23;3.70;;;3.50;37.50;;;;;;10459349;28;20259;-78
2023/01/30 15:40:50;;;;;;;12.60;3.93;;;3.60;30.50;;;;;;10487124;28;20196;-81
2023/01/30 15:46:42;;;;;;;12.40;2.60;;;3.60;41.90;;;;;;10473911;28;20216;-77
2023/01/30 15:52:06;;;;;;;15.97;2.83;;;3.40;67.10;;;;;;10450414;28;20250;-78
2023/01/30 15:57:32;;;;;;;12.53;3.20;;;3.50;61.90;;;;;;10445409;28;20235;-78
2023/01/30 16:02:54;;;;;;;11.83;3.50;;;3.50;67.00;;;;;;10433459;28;20441;-78
2023/01/30 16:08:24;;;;;;;7.93;2.10;;;3.40;74.80;;;;;;10423481;28;20236;-76
2023/01/30 16:13:45;;;;;;;7.47;1.93;;;3.50;40.50;;;;;;10457255;28;20276;-79
2023/01/30 16:19:07;;;;;;;13.20;4.03;;;3.40;30.00;;;;;;10472917;28;20274;-78
2023/01/30 16:24:31;;;;;;;13.20;2.07;;;3.30;42.60;;;;;;10436192;28;20193;-78
2023/01/30 16:29:56;;;;;;;4.03;1.70;;;3.10;58.60;;;;;;10440709;28;20199;-79
2023/01/30 16:35:23;;;;;;;8.47;1.97;;;3.00;76.20;;;;;;10446196;28;20508;-79
2023/01/30 16:40:46;;;;;;;8.67;1.80;;;2.90;90.60;;;;;;10451221;28;20390;-79
2023/01/30 16:46:57;;;;;;;8.40;2.00;;;2.90;99.90;;;;;;10474157;28;20222;-79
2023/01/30 16:52:30;;;;;;;11.30;2.43;;;2.80;99.90;;;;;;10434667;28;20277;-79
2023/01/30 16:57:59;;;;;;;6.87;2.07;;;2.90;99.90;;;;;;10420786;28;20295;-79
2023/01/30 17:03:30;;;;;;;7.63;2.23;;;3.00;99.90;;;;;;10414912;28;20407;-77
2023/01/30 17:08:57;;;;;;;13.10;2.50;;;3.00;99.90;;;;;;10434472;28;20208;-76
2023/01/30 17:14:21;;;;;;;10.37;2.97;;;3.10;99.90;;;;;;10420335;28;20244;-78
2023/01/30 17:19:45;;;;;;;8.47;2.43;;;3.00;99.90;;;;;;10432052;28;20228;-79
2023/01/30 17:25:17;;;;;;;8.77;2.00;;;3.00;99.90;;;;;;10454910;28;20413;-79
2023/01/30 17:30:38;;;;;;;6.93;2.23;;;3.10;99.90;;;;;;10478419;28;20235;-79
2023/01/30 17:36:04;;;;;;;8.23;2.60;;;3.10;99.90;;;;;;10453434;28;20196;-77
2023/01/30 17:41:29;;;;;;;7.97;3.33;;;3.20;96.80;;;;;;10475300;28;20187;-78
2023/01/30 17:46:50;;;;;;;13.73;4.97;;;3.10;97.90;;;;;;10476916;28;20188;-79
2023/01/30 17:52:12;;;;;;;12.20;4.60;;;3.00;99.80;;;;;;10462208;28;20232;-79
2023/01/30 17:57:34;;;;;;;11.20;4.07;;;2.90;99.90;;;;;;10477888;28;20287;-79
2023/01/30 18:02:55;;;;;;;22.93;6.83;;;2.90;99.90;;;;;;10477826;28;20486;-79
2023/01/30 18:08:16;;;;;;;14.03;5.10;;;2.90;99.90;;;;;;10476341;28;20643;-78
2023/01/30 18:13:38;;;;;;;21.27;5.80;;;3.00;99.90;;;;;;10476688;28;20230;-78
2023/01/30 18:19:04;;;;;;;14.07;4.30;;;3.10;99.90;;;;;;10477322;28;20194;-78
2023/01/30 18:24:25;;;;;;;8.90;2.60;;;3.10;99.90;;;;;;10436049;28;20237;-77
2023/01/30 18:29:46;;;;;;;15.47;2.97;;;3.10;99.90;;;;;;10460754;28;20203;-78
2023/01/30 18:35:07;;;;;;;8.67;1.93;;;3.10;99.90;;;;;;10471386;28;20207;-78
2023/01/30 18:40:28;;;;;;;8.40;2.40;;;3.20;99.90;;;;;;10469870;28;20271;-78
2023/01/30 18:45:59;;;;;;;13.77;2.37;;;3.10;99.90;;;;;;10480498;28;20498;-77
2023/01/30 18:51:24;;;;;;;9.73;2.83;;;3.00;99.90;;;;;;10483535;28;20224;-80
2023/01/30 18:56:45;;;;;;;11.80;2.70;;;3.10;99.90;;;;;;10482099;28;20235;-79
2023/01/30 19:02:09;;;;;;;14.30;3.40;;;3.20;99.90;;;;;;10482733;28;20203;-77
2023/01/30 19:07:31;;;;;;;12.57;2.03;;;3.20;99.90;;;;;;10469415;28;20215;-78
2023/01/30 19:18:32;;;;;;;9.37;3.07;;;3.30;99.90;;;;;;10481928;28;20356;-78
2023/01/30 19:23:55;;;;;;;19.23;3.37;;;3.40;99.90;;;;;;10483305;28;20210;-77
2023/01/30 19:29:17;;;;;;;19.40;3.27;;;3.40;99.90;;;;;;10481408;28;20406;-77
2023/01/30 19:34:38;;;;;;;24.27;4.20;;;3.40;99.90;;;;;;10480289;28;20219;-79
2023/01/30 19:39:59;;;;;;;15.33;4.83;;;3.40;99.90;;;;;;10461652;28;20501;-77
2023/01/30 19:45:20;;;;;;;17.63;5.27;;;3.40;99.90;;;;;;10478075;28;20188;-77
2023/01/30 19:50:41;;;;;;;12.77;3.47;;;3.30;99.90;;;;;;10481668;28;20216;-78
2023/01/30 19:56:02;;;;;;;11.67;3.13;;;3.40;99.90;;;;;;10480044;28;20235;-79
2023/01/30 20:01:28;;;;;;;16.30;4.10;;;3.50;99.90;;;;;;10452771;28;20249;-77
2023/01/30 20:06:49;;;;;;;10.83;2.90;;;3.50;99.90;;;;;;10479938;28;20206;-78
2023/01/30 20:12:10;;;;;;;11.57;4.03;;;3.60;99.90;;;;;;10465692;28;20307;-78
2023/01/30 20:17:32;;;;;;;18.13;3.93;;;3.60;99.90;;;;;;10480356;28;20215;-79
2023/01/30 20:22:53;;;;;;;9.50;2.77;;;3.60;99.90;;;;;;10446457;28;20202;-79
2023/01/30 20:28:14;;;;;;;13.83;3.57;;;3.70;89.80;;;;;;10477269;28;20366;-79
2023/01/30 20:33:36;;;;;;;17.40;3.50;;;3.70;92.80;;;;;;10480910;28;20453;-79
2023/01/30 20:39:02;;;;;;;13.97;3.90;;;3.70;99.90;;;;;;10478841;28;20488;-79
2023/01/30 20:44:24;;;;;;;13.23;3.27;;;3.70;99.90;;;;;;10480330;28;20267;-79
2023/01/30 20:49:45;;;;;;;16.40;3.67;;;3.70;96.80;;;;;;10480203;28;20186;-79
2023/01/30 20:55:06;;;;;;;15.03;3.80;;;3.70;92.80;;;;;;10477956;28;20684;-79
2023/01/30 21:00:27;;;;;;;13.97;3.27;;;3.80;69.90;;;;;;10478789;28;20222;-79
2023/01/30 21:05:56;;;;;;;16.80;3.43;;;3.80;62.40;;;;;;10479232;28;20187;-79
2023/01/30 21:11:19;;;;;;;11.30;3.33;;;3.80;56.30;;;;;;10478291;28;20224;-80
2023/01/30 21:16:41;;;;;;;14.60;3.43;;;3.70;58.10;;;;;;10478037;28;20193;-79
2023/01/30 21:22:08;;;;;;;14.37;3.20;;;3.70;35.10;;;;;;10450353;28;20199;-79
2023/01/30 21:27:29;;;;;;;20.20;3.53;;;3.80;28.30;;;;;;10477570;28;20442;-78
2023/01/30 21:32:50;;;;;;;17.47;3.23;;;3.80;22.00;;;;;;10477763;28;20224;-79
2023/01/30 21:43:51;;;;;;;18.00;3.50;;;3.70;23.50;;;;;;10476729;28;20205;-79
2023/01/30 21:49:13;;;;;;;14.67;3.07;;;3.70;22.00;;;;;;10478337;28;20188;-79
2023/01/30 21:54:34;;;;;;;11.53;2.83;;;3.70;24.20;;;;;;10476282;28;20216;-78
2023/01/30 21:59:55;;;;;;;12.73;3.13;;;3.70;20.30;;;;;;10452087;28;20237;-78
2023/01/30 22:05:16;;;;;;;14.33;3.20;;;3.70;15.30;;;;;;10436780;28;20495;-79
2023/01/30 22:10:38;;;;;;;14.27;3.17;;;3.60;19.60;;;;;;10449306;28;20225;-79
2023/01/30 22:16:04;;;;;;;18.63;3.43;;;3.60;18.00;;;;;;10476891;28;20509;-78
2023/01/30 22:21:28;;;;;;;14.87;3.60;;;3.50;32.10;;;;;;10475421;28;20239;-79
2023/01/30 22:26:49;;;;;;;16.70;2.77;;;3.50;23.50;;;;;;10468710;28;20279;-79
2023/01/30 22:32:11;;;;;;;19.37;3.83;;;3.40;28.60;;;;;;10485149;28;20257;-76
2023/01/30 22:37:31;;;;;;;12.10;2.90;;;3.50;19.10;;;;;;10485276;28;20197;-77
2023/01/30 22:42:52;;;;;;;14.60;2.83;;;3.50;22.00;;;;;;10443637;28;20230;-77
2023/01/30 22:48:15;;;;;;;15.73;3.00;;;3.50;23.00;;;;;;10478236;28;20517;-79
2023/01/30 22:53:43;;;;;;;23.57;3.30;;;3.50;12.00;;;;;;10483403;28;20454;-78
2023/01/30 22:59:05;;;;;;;16.80;2.93;;;3.40;20.40;;;;;;10484508;28;20228;-78
2023/01/30 23:04:26;;;;;;;16.13;3.27;;;3.20;31.70;;;;;;10481652;28;20246;-78
2023/01/30 23:09:47;;;;;;;18.23;3.17;;;3.20;21.40;;;;;;10484146;28;20194;-78
2023/01/30 23:15:09;;;;;;;13.00;2.47;;;3.20;21.80;;;;;;10483902;28;20230;-78
2023/01/30 23:20:30;;;;;;;15.50;3.23;;;3.20;13.80;;;;;;10481598;28;20196;-78
2023/01/30 23:25:51;;;;;;;17.17;3.50;;;3.20;15.80;;;;;;10480294;28;20552;-79
2023/01/30 23:31:15;;;;;;;9.77;2.87;;;3.20;11.30;;;;;;10482669;28;20379;-76
2023/01/30 23:36:36;;;;;;;20.20;3.20;;;3.20;13.70;;;;;;10478608;28;20204;-80
2023/01/30 23:41:58;;;;;;;13.90;2.90;;;3.20;24.40;;;;;;10481864;28;20476;-78
2023/01/30 23:47:19;;;;;;;13.53;2.93;;;3.20;12.40;;;;;;10482726;28;20557;-78
2023/01/30 23:52:42;;;;;;;20.47;4.03;;;3.20;10.70;;;;;;10481086;28;20246;-79
2023/01/30 23:58:03;;;;;;;16.67;3.63;;;3.00;13.80;;;;;;10482480;28;20305;-79
